createdAt,value
2023-01-23T00:00:29.334Z,7.60
2023-01-23T00:02:31.751Z,7.30
2023-01-23T00:04:34.295Z,8.85
2023-01-23T00:06:37.030Z,6.93
2023-01-23T00:08:41.404Z,7.50
2023-01-23T00:10:43.960Z,6.72
2023-01-23T00:12:49.144Z,6.85
2023-01-23T00:14:51.611Z,8.00
2023-01-23T00:16:56.646Z,7.55
2023-01-23T00:19:00.332Z,7.28
2023-01-23T00:21:05.654Z,7.97
2023-01-23T00:23:08.904Z,7.43
2023-01-23T00:25:11.424Z,7.15
2023-01-23T00:27:13.885Z,7.38
2023-01-23T00:29:16.326Z,7.40
2023-01-23T00:31:20.822Z,8.30
2023-01-23T00:33:27.635Z,7.65
2023-01-23T00:35:31.245Z,6.78
2023-01-23T00:37:33.641Z,6.82
2023-01-23T00:39:36.076Z,7.60
2023-01-23T00:41:38.554Z,7.30
2023-01-23T00:43:41.120Z,8.70
2023-01-23T00:45:43.733Z,10.95
2023-01-23T00:47:48.517Z,11.70
2023-01-23T00:49:58.949Z,13.48
2023-01-23T00:52:01.270Z,10.38
2023-01-23T00:54:04.167Z,9.95
2023-01-23T00:56:07.916Z,8.40
2023-01-23T00:58:11.496Z,8.20
2023-01-23T01:00:15.056Z,9.25
2023-01-23T01:02:18.195Z,9.88
2023-01-23T01:04:20.706Z,8.65
2023-01-23T01:06:26.286Z,7.68
2023-01-23T01:08:28.979Z,7.45
2023-01-23T01:10:33.088Z,7.82
2023-01-23T01:12:35.485Z,7.82
2023-01-23T01:14:44.147Z,8.00
2023-01-23T01:16:46.821Z,8.20
2023-01-23T01:18:49.437Z,6.95
2023-01-23T01:20:52.000Z,7.38
2023-01-23T01:22:58.511Z,7.05
2023-01-23T01:25:01.354Z,7.65
2023-01-23T01:27:11.786Z,7.53
2023-01-23T01:29:14.835Z,7.88
2023-01-23T01:31:19.462Z,7.68
2023-01-23T01:33:24.468Z,7.80
2023-01-23T01:35:28.187Z,7.05
2023-01-23T01:37:33.221Z,7.57
2023-01-23T01:39:38.300Z,8.18
2023-01-23T01:41:40.752Z,7.90
2023-01-23T01:43:43.737Z,9.70
2023-01-23T01:46:08.852Z,10.77
2023-01-23T01:48:11.412Z,11.55
2023-01-23T01:50:15.319Z,11.05
2023-01-23T01:52:20.264Z,10.93
2023-01-23T01:54:29.124Z,10.82
2023-01-23T01:56:38.693Z,10.98
2023-01-23T01:58:45.143Z,10.45
2023-01-23T02:00:48.898Z,11.70
2023-01-23T02:02:55.479Z,11.77
2023-01-23T02:05:02.288Z,11.15
2023-01-23T02:07:14.692Z,11.95
2023-01-23T02:09:22.620Z,10.25
2023-01-23T02:11:43.834Z,9.25
2023-01-23T02:13:46.919Z,8.38
2023-01-23T02:15:50.094Z,8.35
2023-01-23T02:17:54.817Z,8.05
2023-01-23T02:20:06.068Z,9.50
2023-01-23T02:22:22.175Z,11.63
2023-01-23T02:24:31.978Z,11.45
2023-01-23T02:26:40.998Z,11.15
2023-01-23T02:28:46.898Z,8.98
2023-01-23T02:30:54.509Z,9.13
2023-01-23T02:33:08.488Z,9.68
2023-01-23T02:35:15.710Z,9.07
2023-01-23T02:37:19.093Z,8.15
2023-01-23T02:39:22.369Z,8.48
2023-01-23T02:41:30.897Z,8.52
2023-01-23T02:43:45.691Z,8.70
2023-01-23T02:45:48.439Z,9.18
2023-01-23T02:47:51.991Z,9.30
2023-01-23T02:49:54.496Z,8.30
2023-01-23T02:51:57.606Z,7.82
2023-01-23T02:54:00.247Z,8.80
2023-01-23T02:56:02.661Z,7.53
2023-01-23T02:58:23.925Z,8.18
2023-01-23T03:00:29.907Z,7.88
2023-01-23T03:02:32.368Z,7.68
2023-01-23T03:04:34.845Z,7.50
2023-01-23T03:06:37.891Z,8.02
2023-01-23T03:08:47.806Z,8.40
2023-01-23T03:10:50.326Z,8.50
2023-01-23T03:12:53.137Z,7.88
2023-01-23T03:14:56.496Z,7.68
2023-01-23T03:17:01.680Z,8.32
2023-01-23T03:19:10.620Z,7.45
2023-01-23T03:21:13.667Z,7.57
2023-01-23T03:23:18.466Z,8.32
2023-01-23T03:25:23.952Z,8.20
2023-01-23T03:27:26.677Z,7.68
2023-01-23T03:29:50.434Z,8.45
2023-01-23T03:31:53.510Z,7.78
2023-01-23T03:33:58.804Z,8.82
2023-01-23T03:36:01.507Z,8.05
2023-01-23T03:38:04.065Z,9.23
2023-01-23T03:40:28.373Z,10.07
2023-01-23T03:42:33.742Z,9.80
2023-01-23T03:44:37.749Z,11.20
2023-01-23T03:46:40.130Z,12.95
2023-01-23T03:48:42.789Z,12.38
2023-01-23T03:50:47.890Z,13.85
2023-01-23T03:52:50.498Z,12.77
2023-01-23T03:54:54.182Z,12.02
2023-01-23T03:56:56.803Z,9.15
2023-01-23T03:59:35.846Z,8.32
2023-01-23T04:01:41.770Z,8.07
2023-01-23T04:03:45.059Z,7.90
2023-01-23T04:05:54.970Z,7.65
2023-01-23T04:07:57.619Z,8.52
2023-01-23T04:10:01.160Z,7.93
2023-01-23T04:12:03.885Z,8.60
2023-01-23T04:14:08.930Z,8.60
2023-01-23T04:16:11.557Z,9.02
2023-01-23T04:18:14.166Z,8.18
2023-01-23T04:20:16.685Z,9.05
2023-01-23T04:22:25.670Z,8.55
2023-01-23T04:24:28.410Z,7.75
2023-01-23T04:26:30.914Z,8.20
2023-01-23T04:28:33.717Z,8.50
2023-01-23T04:30:36.502Z,8.10
2023-01-23T04:32:47.197Z,9.18
2023-01-23T04:34:56.497Z,8.02
2023-01-23T04:37:01.335Z,8.85
2023-01-23T04:39:06.923Z,8.90
2023-01-23T04:41:17.829Z,7.88
2023-01-23T04:43:20.477Z,9.02
2023-01-23T04:45:26.229Z,7.80
2023-01-23T04:47:28.643Z,8.40
2023-01-23T04:49:31.787Z,7.65
2023-01-23T04:51:34.407Z,7.57
2023-01-23T04:53:37.133Z,8.32
2023-01-23T04:55:42.244Z,8.35
2023-01-23T04:57:51.055Z,8.27
2023-01-23T05:00:01.566Z,8.85
2023-01-23T05:02:06.089Z,8.10
2023-01-23T05:04:15.156Z,8.35
2023-01-23T05:06:18.496Z,8.03
2023-01-23T05:08:20.785Z,7.20
2023-01-23T05:10:31.325Z,8.40
2023-01-23T05:12:42.882Z,7.47
2023-01-23T05:14:45.831Z,8.02
2023-01-23T05:16:48.854Z,8.65
2023-01-23T05:18:55.929Z,8.45
2023-01-23T05:20:58.638Z,8.02
2023-01-23T05:23:01.861Z,9.20
2023-01-23T05:25:12.223Z,8.57
2023-01-23T05:27:15.130Z,11.18
2023-01-23T05:29:22.649Z,14.85
2023-01-23T05:31:46.032Z,13.20
2023-01-23T05:34:07.320Z,10.93
2023-01-23T05:36:12.451Z,8.73
2023-01-23T05:38:14.986Z,9.27
2023-01-23T05:40:20.238Z,8.20
2023-01-23T05:42:40.806Z,9.38
2023-01-23T05:45:05.843Z,8.77
2023-01-23T05:47:15.155Z,7.65
2023-01-23T05:49:17.869Z,8.48
2023-01-23T05:51:22.586Z,8.48
2023-01-23T05:53:26.297Z,8.80
2023-01-23T05:55:29.032Z,9.30
2023-01-23T05:57:32.121Z,8.90
2023-01-23T05:59:53.329Z,8.98
2023-01-23T06:02:20.784Z,9.10
2023-01-23T06:04:48.272Z,9.25
2023-01-23T06:07:16.650Z,8.25
2023-01-23T06:09:19.114Z,9.98
2023-01-23T06:11:21.571Z,9.45
2023-01-23T06:13:24.047Z,10.02
2023-01-23T06:15:28.514Z,9.90
2023-01-23T06:19:37.540Z,12.52
2023-01-23T06:21:40.301Z,12.43
2023-01-23T06:23:42.750Z,12.45
2023-01-23T06:25:45.622Z,12.52
2023-01-23T06:27:48.653Z,12.43
2023-01-23T06:29:55.828Z,12.77
2023-01-23T06:31:58.554Z,11.55
2023-01-23T06:34:04.045Z,10.52
2023-01-23T06:36:15.334Z,9.27
2023-01-23T06:38:18.389Z,8.98
2023-01-23T06:40:23.540Z,9.10
2023-01-23T06:42:55.809Z,9.55
2023-01-23T06:44:59.034Z,8.18
2023-01-23T06:47:03.786Z,8.90
2023-01-23T06:49:09.853Z,8.60
2023-01-23T06:51:13.176Z,9.38
2023-01-23T06:53:19.421Z,9.18
2023-01-23T06:55:25.049Z,8.88
2023-01-23T06:57:27.741Z,7.93
2023-01-23T06:59:30.283Z,9.65
2023-01-23T07:01:34.914Z,9.60
2023-01-23T07:04:19.054Z,9.05
2023-01-23T07:06:25.625Z,8.48
2023-01-23T07:08:28.806Z,8.63
2023-01-23T07:10:32.354Z,8.65
2023-01-23T07:12:37.431Z,8.98
2023-01-23T07:14:42.257Z,9.25
2023-01-23T07:16:47.111Z,9.07
2023-01-23T07:18:49.796Z,9.55
2023-01-23T07:20:55.834Z,8.73
2023-01-23T07:22:58.718Z,10.20
2023-01-23T07:25:05.499Z,9.30
2023-01-23T07:27:07.865Z,9.32
2023-01-23T07:29:10.713Z,8.75
2023-01-23T07:31:13.437Z,9.80
2023-01-23T07:33:15.772Z,8.80
2023-01-23T07:35:19.525Z,9.43
2023-01-23T07:37:25.264Z,8.68
2023-01-23T07:39:27.894Z,9.15
2023-01-23T07:41:30.322Z,8.77
2023-01-23T07:43:38.425Z,9.40
2023-01-23T07:45:40.929Z,8.73
2023-01-23T07:47:45.557Z,8.55
2023-01-23T07:49:48.250Z,8.82
2023-01-23T07:51:50.774Z,9.45
2023-01-23T07:53:55.919Z,9.10
2023-01-23T07:55:58.711Z,8.90
2023-01-23T07:58:01.075Z,8.55
2023-01-23T08:00:04.672Z,9.20
2023-01-23T08:02:14.848Z,8.48
2023-01-23T08:04:18.634Z,8.70
2023-01-23T08:06:21.300Z,7.93
2023-01-23T08:08:23.826Z,6.82
2023-01-23T08:10:29.020Z,7.75
2023-01-23T08:12:31.608Z,8.43
2023-01-23T08:14:34.126Z,9.05
2023-01-23T08:16:36.985Z,8.52
2023-01-23T08:18:39.482Z,8.30
2023-01-23T08:20:42.073Z,8.23
2023-01-23T08:22:44.562Z,9.07
2023-01-23T08:24:47.443Z,7.75
2023-01-23T08:26:52.600Z,8.20
2023-01-23T08:28:54.971Z,8.02
2023-01-23T08:31:06.673Z,7.47
2023-01-23T08:33:10.049Z,7.90
2023-01-23T08:35:12.602Z,7.65
2023-01-23T08:37:14.988Z,7.80
2023-01-23T08:39:17.466Z,7.55
2023-01-23T08:41:20.055Z,7.90
2023-01-23T08:43:25.236Z,7.95
2023-01-23T08:45:33.037Z,7.75
2023-01-23T08:47:36.911Z,7.88
2023-01-23T08:49:39.523Z,8.10
2023-01-23T08:51:42.273Z,7.57
2023-01-23T08:53:44.785Z,7.55
2023-01-23T08:55:47.411Z,7.45
2023-01-23T08:57:49.881Z,7.07
2023-01-23T08:59:55.702Z,7.50
2023-01-23T09:01:58.186Z,7.05
2023-01-23T09:04:01.004Z,7.70
2023-01-23T09:08:08.747Z,6.97
2023-01-23T09:10:12.958Z,7.10
2023-01-23T09:12:15.470Z,7.43
2023-01-23T09:14:17.962Z,6.88
2023-01-23T09:16:23.366Z,7.25
2023-01-23T09:18:26.164Z,6.63
2023-01-23T09:20:29.305Z,7.20
2023-01-23T09:22:31.719Z,6.70
2023-01-23T09:24:34.950Z,6.72
2023-01-23T09:26:37.853Z,7.43
2023-01-23T09:28:42.114Z,7.32
2023-01-23T09:30:45.739Z,6.80
2023-01-23T09:32:50.802Z,6.78
2023-01-23T09:34:55.052Z,6.60
2023-01-23T09:36:57.414Z,6.80
2023-01-23T09:38:59.858Z,7.00
2023-01-23T09:41:09.323Z,6.65
2023-01-23T09:43:16.712Z,6.70
2023-01-23T09:45:23.017Z,7.10
2023-01-23T09:47:31.874Z,6.78
2023-01-23T09:49:44.116Z,7.03
2023-01-23T09:51:52.845Z,6.88
2023-01-23T09:53:59.481Z,7.80
2023-01-23T09:56:12.421Z,7.07
2023-01-23T09:58:19.773Z,6.57
2023-01-23T10:00:25.677Z,7.07
2023-01-23T10:02:28.845Z,6.90
2023-01-23T10:04:32.441Z,6.97
2023-01-23T10:09:02.864Z,6.78
2023-01-23T10:11:12.179Z,6.55
2023-01-23T10:13:17.875Z,6.72
2023-01-23T10:15:27.656Z,6.70
2023-01-23T10:17:37.614Z,6.03
2023-01-23T10:20:17.720Z,6.53
2023-01-23T10:22:36.118Z,7.30
2023-01-23T10:24:48.986Z,6.18
2023-01-23T10:26:58.440Z,7.00
2023-01-23T10:29:10.279Z,7.13
2023-01-23T10:31:23.091Z,7.50
2023-01-23T10:33:32.111Z,6.50
2023-01-23T10:35:40.987Z,7.03
2023-01-23T10:37:52.695Z,7.22
2023-01-23T10:40:01.002Z,7.00
2023-01-23T10:42:08.331Z,7.57
2023-01-23T10:44:15.893Z,7.68
2023-01-23T10:46:20.273Z,7.68
2023-01-23T10:48:39.359Z,7.93
2023-01-23T10:50:41.753Z,6.72
2023-01-23T10:52:47.134Z,8.00
2023-01-23T10:54:49.482Z,7.63
2023-01-23T10:56:55.281Z,7.93
2023-01-23T10:59:00.612Z,7.43
2023-01-23T11:01:04.469Z,8.38
2023-01-23T11:03:28.188Z,8.15
2023-01-23T11:05:51.204Z,8.15
2023-01-23T11:07:58.601Z,7.95
2023-01-23T11:10:13.364Z,8.15
2023-01-23T11:12:18.292Z,7.38
2023-01-23T11:14:24.384Z,8.93
2023-01-23T11:16:26.932Z,8.75
2023-01-23T11:18:34.167Z,8.63
2023-01-23T11:20:39.675Z,7.63
2023-01-23T11:22:42.908Z,8.02
2023-01-23T11:24:47.909Z,7.88
2023-01-23T11:26:59.413Z,9.13
2023-01-23T11:29:01.947Z,7.25
2023-01-23T11:31:15.443Z,7.75
2023-01-23T11:33:34.755Z,8.55
2023-01-23T11:35:59.903Z,8.27
2023-01-23T11:38:05.068Z,6.95
2023-01-23T11:40:13.728Z,8.93
2023-01-23T11:42:18.111Z,8.38
2023-01-23T11:46:45.164Z,7.72
2023-01-23T11:48:56.556Z,7.20
2023-01-23T11:51:07.602Z,8.10
2023-01-23T11:53:30.688Z,8.15
2023-01-23T11:56:18.025Z,9.05
2023-01-23T11:58:52.703Z,8.27
2023-01-23T12:01:05.731Z,7.80
2023-01-23T12:03:36.746Z,8.25
2023-01-23T12:06:18.824Z,7.75
2023-01-23T12:08:31.363Z,8.00
2023-01-23T12:10:47.719Z,8.00
2023-01-23T12:13:09.894Z,8.02
2023-01-23T12:15:23.183Z,7.35
2023-01-23T12:17:37.182Z,8.15
2023-01-23T12:19:53.024Z,7.75
2023-01-23T12:22:05.760Z,7.18
2023-01-23T12:24:15.246Z,7.88
2023-01-23T12:26:19.905Z,7.63
2023-01-23T12:28:37.122Z,8.32
2023-01-23T12:31:05.726Z,8.05
2023-01-23T12:33:21.223Z,8.00
2023-01-23T12:35:33.771Z,7.93
2023-01-23T12:38:02.353Z,8.07
2023-01-23T12:40:12.789Z,8.18
2023-01-23T12:42:23.920Z,8.38
2023-01-23T12:44:36.049Z,7.97
2023-01-23T12:46:43.956Z,9.07
2023-01-23T12:48:53.836Z,8.05
2023-01-23T12:51:02.228Z,7.75
2023-01-23T12:53:09.548Z,8.95
2023-01-23T12:55:18.365Z,7.82
2023-01-23T12:57:52.696Z,7.35
2023-01-23T13:00:16.382Z,7.20
2023-01-23T13:02:29.263Z,8.20
2023-01-23T13:04:50.841Z,7.65
2023-01-23T13:07:07.087Z,8.02
2023-01-23T13:09:20.704Z,7.45
2023-01-23T13:11:46.085Z,6.75
2023-01-23T13:13:48.882Z,7.43
2023-01-23T13:16:12.508Z,7.78
2023-01-23T13:18:25.159Z,7.22
2023-01-23T13:20:49.746Z,6.72
2023-01-23T13:22:52.410Z,6.80
2023-01-23T13:25:18.804Z,7.60
2023-01-23T13:27:37.208Z,7.82
2023-01-23T13:29:50.104Z,7.07
2023-01-23T13:34:36.179Z,7.70
2023-01-23T13:36:38.828Z,7.25
2023-01-23T13:38:42.273Z,7.28
2023-01-23T13:41:21.223Z,8.27
2023-01-23T13:43:42.076Z,9.15
2023-01-23T13:45:46.045Z,7.00
2023-01-23T14:22:08.173Z,7.68
2023-01-23T14:24:23.363Z,8.45
2023-01-23T14:26:27.436Z,8.10
2023-01-23T14:28:30.251Z,8.60
2023-01-23T14:30:32.944Z,8.30
2023-01-23T14:32:35.591Z,8.98
2023-01-23T14:34:40.249Z,8.38
2023-01-23T14:36:45.612Z,8.05
2023-01-23T14:38:49.717Z,7.80
2023-01-23T14:40:57.424Z,9.00
2023-01-23T14:43:03.693Z,8.18
2023-01-23T14:45:10.794Z,8.32
2023-01-23T14:47:17.722Z,7.80
2023-01-23T14:49:25.246Z,8.27
2023-01-23T14:51:28.553Z,6.68
2023-01-23T14:53:30.972Z,7.57
2023-01-23T14:55:37.794Z,8.48
2023-01-23T14:57:43.188Z,8.23
2023-01-23T14:59:47.141Z,7.57
2023-01-23T15:01:54.656Z,10.15
2023-01-23T15:03:59.906Z,10.82
2023-01-23T15:06:07.048Z,10.35
2023-01-23T15:08:21.237Z,8.57
2023-01-23T15:10:26.537Z,7.47
2023-01-23T15:12:29.163Z,7.60
2023-01-23T15:14:37.546Z,6.40
2023-01-23T15:16:41.944Z,7.53
2023-01-23T15:21:05.410Z,7.38
2023-01-23T15:23:28.271Z,7.50
2023-01-23T15:25:38.754Z,7.72
2023-01-23T15:27:41.179Z,7.97
2023-01-23T15:29:46.174Z,8.15
2023-01-23T15:31:51.004Z,8.50
2023-01-23T15:33:54.137Z,7.28
2023-01-23T15:36:05.355Z,7.57
2023-01-23T15:38:16.549Z,7.20
2023-01-23T15:40:24.699Z,8.35
2023-01-23T15:42:30.315Z,7.75
2023-01-23T15:44:33.445Z,6.90
2023-01-23T15:46:38.631Z,8.80
2023-01-23T15:48:41.128Z,7.45
2023-01-23T15:50:46.299Z,8.13
2023-01-23T15:52:50.897Z,10.25
2023-01-23T15:54:55.716Z,9.20
2023-01-23T15:57:06.923Z,8.45
2023-01-23T15:59:14.774Z,9.00
2023-01-23T16:01:17.198Z,8.80
2023-01-23T16:03:23.301Z,8.27
2023-01-23T16:05:27.471Z,7.53
2023-01-23T16:07:34.678Z,7.45
2023-01-23T16:09:39.262Z,7.97
2023-01-23T16:11:42.472Z,8.35
2023-01-23T16:13:45.183Z,8.35
2023-01-23T16:15:48.818Z,7.53
2023-01-23T16:17:51.894Z,7.35
2023-01-23T16:19:56.867Z,8.75
2023-01-23T16:22:05.392Z,7.82
2023-01-23T16:24:15.871Z,7.72
2023-01-23T16:26:20.970Z,8.10
2023-01-23T16:28:26.608Z,7.88
2023-01-23T16:30:29.062Z,8.27
2023-01-23T16:32:31.470Z,7.57
2023-01-23T16:34:34.002Z,7.70
2023-01-23T16:36:39.108Z,8.20
2023-01-23T16:38:44.888Z,7.80
2023-01-23T16:40:47.543Z,9.50
2023-01-23T16:42:51.555Z,11.40
2023-01-23T16:44:57.686Z,12.57
2023-01-23T16:47:00.294Z,10.70
2023-01-23T16:49:02.621Z,8.13
2023-01-23T16:51:11.811Z,8.15
2023-01-23T16:53:23.272Z,8.55
2023-01-23T16:55:33.676Z,7.85
2023-01-23T16:57:36.125Z,7.60
2023-01-23T16:59:40.594Z,7.47
2023-01-23T17:01:46.018Z,7.35
2023-01-23T17:03:55.366Z,7.00
2023-01-23T17:05:57.826Z,7.82
2023-01-23T17:08:00.312Z,8.18
2023-01-23T17:10:06.399Z,7.82
2023-01-23T17:12:14.808Z,7.88
2023-01-23T17:14:20.388Z,7.70
2023-01-23T17:16:27.661Z,9.10
2023-01-23T17:18:34.409Z,9.35
2023-01-23T17:20:39.017Z,10.05
2023-01-23T17:22:42.760Z,9.73
2023-01-23T17:24:45.072Z,10.00
2023-01-23T17:26:50.742Z,9.43
2023-01-23T17:28:53.175Z,13.23
2023-01-23T17:30:58.051Z,10.48
2023-01-23T17:33:00.536Z,8.02
2023-01-23T17:35:06.406Z,8.15
2023-01-23T17:37:18.005Z,8.05
2023-01-23T17:39:21.492Z,7.88
2023-01-23T17:41:23.929Z,8.13
2023-01-23T17:43:29.537Z,7.07
2023-01-23T17:45:33.345Z,7.35
2023-01-23T17:47:35.825Z,8.15
2023-01-23T17:49:38.871Z,7.57
2023-01-23T17:51:41.249Z,9.00
2023-01-23T17:53:43.839Z,8.82
2023-01-23T17:55:49.387Z,8.30
2023-01-23T17:57:54.140Z,9.02
2023-01-23T17:59:59.382Z,8.55
2023-01-23T18:02:01.934Z,9.07
2023-01-23T18:04:12.052Z,8.88
2023-01-23T18:06:14.561Z,9.73
2023-01-23T18:08:18.714Z,10.77
2023-01-23T18:10:22.200Z,9.48
2023-01-23T18:12:35.124Z,10.38
2023-01-23T18:14:45.570Z,10.40
2023-01-23T18:16:51.580Z,10.45
2023-01-23T18:19:04.873Z,10.65
2023-01-23T18:21:14.089Z,9.52
2023-01-23T18:23:17.139Z,11.15
2023-01-23T18:25:22.054Z,9.85
2023-01-23T18:27:26.016Z,11.00
2023-01-23T18:29:43.901Z,10.15
2023-01-23T18:31:58.733Z,11.32
2023-01-23T18:34:16.218Z,10.60
2023-01-23T18:38:49.791Z,10.02
2023-01-23T18:41:06.588Z,8.88
2023-01-23T18:43:21.667Z,8.07
2023-01-23T18:45:27.524Z,7.97
2023-01-23T18:47:33.254Z,7.75
2023-01-23T18:49:36.304Z,8.63
2023-01-23T18:51:42.548Z,8.52
2023-01-23T18:53:55.547Z,8.00
2023-01-23T18:56:10.370Z,8.70
2023-01-23T19:00:29.625Z,9.57
2023-01-23T19:02:39.521Z,9.00
2023-01-23T19:04:49.749Z,7.75
2023-01-23T19:06:52.819Z,8.45
2023-01-23T19:08:56.555Z,7.68
2023-01-23T19:11:02.104Z,7.07
2023-01-23T19:13:18.246Z,7.80
2023-01-23T19:15:28.998Z,7.20
2023-01-23T19:17:42.492Z,7.57
2023-01-23T19:19:55.591Z,7.72
2023-01-23T19:21:59.213Z,8.13
2023-01-23T19:24:03.142Z,8.35
2023-01-23T19:26:09.801Z,7.40
2023-01-23T19:28:12.879Z,7.57
2023-01-23T19:30:16.650Z,8.93
2023-01-23T19:32:19.725Z,7.72
2023-01-23T19:34:24.758Z,7.65
2023-01-23T19:36:28.078Z,7.85
2023-01-23T19:38:30.453Z,7.95
2023-01-23T19:40:32.889Z,7.53
2023-01-23T19:42:48.971Z,8.90
2023-01-23T19:44:53.893Z,9.45
2023-01-23T19:46:56.422Z,8.52
2023-01-23T19:48:59.483Z,9.45
2023-01-23T19:51:05.247Z,8.23
2023-01-23T19:53:07.840Z,7.72
2023-01-23T19:55:16.888Z,7.25
2023-01-23T19:57:19.300Z,8.15
2023-01-23T19:59:21.738Z,7.50
2023-01-23T20:01:33.369Z,7.32
2023-01-23T20:03:35.740Z,7.10
2023-01-23T20:05:38.222Z,7.68
2023-01-23T20:07:43.325Z,7.60
2023-01-23T20:09:45.720Z,7.47
2023-01-23T20:11:48.134Z,6.95
2023-01-23T20:13:50.562Z,8.00
2023-01-23T20:15:52.996Z,6.32
2023-01-23T20:17:55.338Z,7.43
2023-01-23T20:19:57.740Z,7.70
2023-01-23T20:22:00.126Z,8.40
2023-01-23T20:24:07.355Z,8.05
2023-01-23T20:26:10.777Z,8.73
2023-01-23T20:28:13.151Z,8.48
2023-01-23T20:30:18.179Z,8.60
2023-01-23T20:32:20.591Z,7.60
2023-01-23T20:34:22.936Z,8.48
2023-01-23T20:36:25.293Z,8.30
2023-01-23T20:38:27.857Z,8.82
2023-01-23T20:40:32.896Z,10.25
2023-01-23T20:42:35.555Z,9.18
2023-01-23T20:44:37.939Z,8.93
2023-01-23T20:46:40.454Z,9.65
2023-01-23T20:48:44.372Z,9.40
2023-01-23T20:50:52.201Z,9.68
2023-01-23T20:53:13.103Z,10.80
2023-01-23T20:55:17.472Z,9.30
2023-01-23T20:57:22.576Z,9.55
2023-01-23T20:59:26.393Z,9.38
2023-01-23T21:01:30.917Z,9.43
2023-01-23T21:03:33.378Z,8.65
2023-01-23T21:05:35.741Z,7.60
2023-01-23T21:07:38.120Z,8.30
2023-01-23T21:09:40.424Z,8.20
2023-01-23T21:11:42.853Z,8.75
2023-01-23T21:13:51.586Z,9.25
2023-01-23T21:15:58.692Z,8.88
2023-01-23T21:18:01.091Z,8.32
2023-01-23T21:20:03.603Z,7.97
2023-01-23T21:22:06.378Z,7.68
2023-01-23T21:24:09.127Z,7.97
2023-01-23T21:26:11.838Z,8.77
2023-01-23T21:28:14.195Z,8.35
2023-01-23T21:30:20.980Z,8.40
2023-01-23T21:32:23.390Z,8.02
2023-01-23T21:34:26.421Z,8.23
2023-01-23T21:36:29.335Z,7.68
2023-01-23T21:38:31.742Z,8.25
2023-01-23T21:40:34.120Z,7.57
2023-01-23T21:42:36.517Z,8.27
2023-01-23T21:44:38.877Z,7.35
2023-01-23T21:46:44.079Z,8.00
2023-01-23T21:48:46.536Z,7.90
2023-01-23T21:50:49.046Z,8.00
2023-01-23T21:52:51.441Z,8.82
2023-01-23T21:54:56.017Z,9.45
2023-01-23T21:56:58.463Z,10.48
2023-01-23T21:59:00.763Z,9.02
2023-01-23T22:01:24.411Z,10.05
2023-01-23T22:03:29.396Z,11.95
2023-01-23T22:05:35.327Z,11.25
2023-01-23T22:07:37.705Z,11.20
2023-01-23T22:09:40.127Z,12.15
2023-01-23T22:11:42.628Z,10.82
2023-01-23T22:13:45.031Z,11.25
2023-01-23T22:15:47.379Z,10.20
2023-01-23T22:17:50.799Z,10.73
2023-01-23T22:19:55.924Z,8.85
2023-01-23T22:21:58.265Z,10.25
2023-01-23T22:24:01.410Z,8.90
2023-01-23T22:26:07.873Z,9.57
2023-01-23T22:28:10.541Z,9.80
2023-01-23T22:30:13.839Z,9.02
2023-01-23T22:32:16.254Z,9.65
2023-01-23T22:34:18.713Z,10.57
2023-01-23T22:36:23.706Z,9.70
2023-01-23T22:38:26.071Z,9.38
2023-01-23T22:40:28.360Z,8.45
2023-01-23T22:42:30.762Z,9.60
2023-01-23T22:44:33.205Z,9.50
2023-01-23T22:46:35.580Z,9.68
2023-01-23T22:48:38.983Z,9.50
2023-01-23T22:50:41.301Z,10.13
2023-01-23T22:52:46.620Z,11.27
2023-01-23T22:54:49.004Z,9.65
2023-01-23T22:56:51.445Z,10.23
2023-01-23T22:58:54.881Z,9.57
2023-01-23T23:00:57.445Z,9.60
2023-01-23T23:02:59.809Z,10.25
2023-01-23T23:05:02.152Z,10.43
2023-01-23T23:07:04.516Z,9.75
2023-01-23T23:09:10.661Z,9.60
2023-01-23T23:11:16.863Z,10.35
2023-01-23T23:13:19.301Z,10.32
2023-01-23T23:15:21.879Z,10.63
2023-01-23T23:17:24.596Z,9.88
2023-01-23T23:19:27.849Z,10.60
2023-01-23T23:21:33.819Z,10.18
2023-01-23T23:23:36.888Z,10.82
2023-01-23T23:25:41.968Z,10.80
2023-01-23T23:27:44.333Z,9.88
2023-01-23T23:29:46.674Z,10.13
2023-01-23T23:31:52.393Z,11.27
2023-01-23T23:33:54.868Z,11.43
2023-01-23T23:35:57.508Z,11.05
2023-01-23T23:38:00.376Z,12.75
2023-01-23T23:40:02.811Z,12.23
2023-01-23T23:42:08.015Z,12.13
2023-01-23T23:44:10.412Z,12.85
2023-01-23T23:46:13.904Z,12.07
2023-01-23T23:48:16.359Z,11.93
2023-01-23T23:50:18.961Z,15.57
2023-01-23T23:52:23.280Z,15.25
2023-01-23T23:56:29.236Z,13.52
2023-01-23T23:58:35.521Z,13.48
